sensor_id;sensor_type;location;lat;lon;timestamp;P1;durP1;ratioP1;P2;durP2;ratioP2
15913;SDS011;8055;51.930;8.840;2023-10-09T00:01:00;24.33;;;13.90;;
15913;SDS011;8055;51.930;8.840;2023-10-09T00:03:29;26.73;;;14.30;;
15913;SDS011;8055;51.930;8.840;2023-10-09T00:05:54;22.50;;;14.30;;
15913;SDS011;8055;51.930;8.840;2023-10-09T00:08:20;30.30;;;16.00;;
15913;SDS011;8055;51.930;8.840;2023-10-09T00:10:55;32.72;;;17.02;;
15913;SDS011;8055;51.930;8.840;2023-10-09T00:13:22;28.10;;;15.32;;
15913;SDS011;8055;51.930;8.840;2023-10-09T00:15:58;33.42;;;16.77;;
15913;SDS011;8055;51.930;8.840;2023-10-09T00:18:39;33.87;;;19.00;;
15913;SDS011;8055;51.930;8.840;2023-10-09T00:21:13;43.70;;;19.55;;
15913;SDS011;8055;51.930;8.840;2023-10-09T00:23:40;35.10;;;18.45;;
15913;SDS011;8055;51.930;8.840;2023-10-09T00:26:06;37.22;;;18.80;;
15913;SDS011;8055;51.930;8.840;2023-10-09T00:28:34;36.53;;;19.05;;
15913;SDS011;8055;51.930;8.840;2023-10-09T00:31:06;46.33;;;20.85;;
15913;SDS011;8055;51.930;8.840;2023-10-09T00:33:35;36.80;;;18.42;;
15913;SDS011;8055;51.930;8.840;2023-10-09T00:36:04;38.33;;;18.23;;
15913;SDS011;8055;51.930;8.840;2023-10-09T00:38:36;35.72;;;17.67;;
15913;SDS011;8055;51.930;8.840;2023-10-09T00:41:05;34.28;;;16.80;;
15913;SDS011;8055;51.930;8.840;2023-10-09T00:43:33;31.73;;;16.75;;
15913;SDS011;8055;51.930;8.840;2023-10-09T00:46:00;38.65;;;18.73;;
15913;SDS011;8055;51.930;8.840;2023-10-09T00:48:46;42.67;;;19.40;;
15913;SDS011;8055;51.930;8.840;2023-10-09T00:51:13;32.95;;;17.63;;
15913;SDS011;8055;51.930;8.840;2023-10-09T00:53:56;35.17;;;18.38;;
15913;SDS011;8055;51.930;8.840;2023-10-09T00:56:24;39.10;;;18.33;;
15913;SDS011;8055;51.930;8.840;2023-10-09T00:58:51;39.38;;;17.77;;
15913;SDS011;8055;51.930;8.840;2023-10-09T01:01:25;34.00;;;16.95;;
15913;SDS011;8055;51.930;8.840;2023-10-09T01:04:04;36.08;;;18.60;;
15913;SDS011;8055;51.930;8.840;2023-10-09T01:06:32;38.92;;;18.90;;
15913;SDS011;8055;51.930;8.840;2023-10-09T01:08:58;31.73;;;16.88;;
15913;SDS011;8055;51.930;8.840;2023-10-09T01:11:35;37.15;;;18.80;;
15913;SDS011;8055;51.930;8.840;2023-10-09T01:14:12;40.78;;;20.17;;
15913;SDS011;8055;51.930;8.840;2023-10-09T01:16:38;38.20;;;18.60;;
15913;SDS011;8055;51.930;8.840;2023-10-09T01:19:12;34.42;;;17.58;;
15913;SDS011;8055;51.930;8.840;2023-10-09T01:21:49;36.90;;;17.58;;
15913;SDS011;8055;51.930;8.840;2023-10-09T01:24:17;38.55;;;17.67;;
15913;SDS011;8055;51.930;8.840;2023-10-09T01:26:44;45.67;;;18.90;;
15913;SDS011;8055;51.930;8.840;2023-10-09T01:29:18;38.53;;;17.85;;
15913;SDS011;8055;51.930;8.840;2023-10-09T01:31:50;39.33;;;18.88;;
15913;SDS011;8055;51.930;8.840;2023-10-09T01:34:23;33.70;;;17.83;;
15913;SDS011;8055;51.930;8.840;2023-10-09T01:36:52;39.97;;;17.52;;
15913;SDS011;8055;51.930;8.840;2023-10-09T01:39:25;35.05;;;17.83;;
15913;SDS011;8055;51.930;8.840;2023-10-09T01:41:52;35.63;;;18.20;;
15913;SDS011;8055;51.930;8.840;2023-10-09T01:44:30;40.45;;;18.63;;
15913;SDS011;8055;51.930;8.840;2023-10-09T01:47:02;32.03;;;17.35;;
15913;SDS011;8055;51.930;8.840;2023-10-09T01:49:39;36.20;;;17.75;;
15913;SDS011;8055;51.930;8.840;2023-10-09T01:52:08;36.05;;;16.88;;
15913;SDS011;8055;51.930;8.840;2023-10-09T01:54:36;36.67;;;17.80;;
15913;SDS011;8055;51.930;8.840;2023-10-09T01:57:02;34.55;;;18.10;;
15913;SDS011;8055;51.930;8.840;2023-10-09T01:59:35;42.50;;;19.48;;
15913;SDS011;8055;51.930;8.840;2023-10-09T02:02:06;36.45;;;17.80;;
15913;SDS011;8055;51.930;8.840;2023-10-09T02:04:41;35.67;;;18.75;;
15913;SDS011;8055;51.930;8.840;2023-10-09T02:07:06;38.40;;;18.25;;
15913;SDS011;8055;51.930;8.840;2023-10-09T02:09:33;38.78;;;17.92;;
15913;SDS011;8055;51.930;8.840;2023-10-09T02:12:01;33.88;;;17.98;;
15913;SDS011;8055;51.930;8.840;2023-10-09T02:14:27;39.13;;;19.23;;
15913;SDS011;8055;51.930;8.840;2023-10-09T02:16:53;35.75;;;18.85;;
15913;SDS011;8055;51.930;8.840;2023-10-09T02:19:30;37.20;;;19.85;;
15913;SDS011;8055;51.930;8.840;2023-10-09T02:21:59;38.53;;;19.00;;
15913;SDS011;8055;51.930;8.840;2023-10-09T02:24:37;37.63;;;20.08;;
15913;SDS011;8055;51.930;8.840;2023-10-09T02:27:22;38.72;;;20.17;;
15913;SDS011;8055;51.930;8.840;2023-10-09T02:30:07;43.00;;;20.88;;
15913;SDS011;8055;51.930;8.840;2023-10-09T02:32:45;40.22;;;20.67;;
15913;SDS011;8055;51.930;8.840;2023-10-09T02:35:17;36.13;;;19.25;;
15913;SDS011;8055;51.930;8.840;2023-10-09T02:38:01;43.10;;;22.50;;
15913;SDS011;8055;51.930;8.840;2023-10-09T02:40:29;42.22;;;22.65;;
15913;SDS011;8055;51.930;8.840;2023-10-09T02:42:58;48.47;;;24.63;;
15913;SDS011;8055;51.930;8.840;2023-10-09T02:45:24;43.10;;;22.40;;
15913;SDS011;8055;51.930;8.840;2023-10-09T02:47:49;45.08;;;25.38;;
15913;SDS011;8055;51.930;8.840;2023-10-09T02:50:16;45.47;;;23.85;;
15913;SDS011;8055;51.930;8.840;2023-10-09T02:52:48;47.47;;;24.92;;
15913;SDS011;8055;51.930;8.840;2023-10-09T02:55:24;45.08;;;24.30;;
15913;SDS011;8055;51.930;8.840;2023-10-09T02:57:51;51.00;;;25.58;;
15913;SDS011;8055;51.930;8.840;2023-10-09T03:00:23;50.20;;;23.80;;
15913;SDS011;8055;51.930;8.840;2023-10-09T03:02:58;42.55;;;23.00;;
15913;SDS011;8055;51.930;8.840;2023-10-09T03:05:24;44.50;;;24.88;;
15913;SDS011;8055;51.930;8.840;2023-10-09T03:07:53;42.78;;;24.35;;
15913;SDS011;8055;51.930;8.840;2023-10-09T03:10:21;44.15;;;23.00;;
15913;SDS011;8055;51.930;8.840;2023-10-09T03:12:47;44.75;;;22.98;;
15913;SDS011;8055;51.930;8.840;2023-10-09T03:15:17;43.67;;;24.05;;
15913;SDS011;8055;51.930;8.840;2023-10-09T03:17:44;45.20;;;23.80;;
15913;SDS011;8055;51.930;8.840;2023-10-09T03:20:10;47.03;;;24.27;;
15913;SDS011;8055;51.930;8.840;2023-10-09T03:22:39;44.08;;;23.70;;
15913;SDS011;8055;51.930;8.840;2023-10-09T03:25:05;38.80;;;23.17;;
15913;SDS011;8055;51.930;8.840;2023-10-09T03:27:39;45.33;;;25.05;;
15913;SDS011;8055;51.930;8.840;2023-10-09T03:30:13;42.10;;;23.55;;
15913;SDS011;8055;51.930;8.840;2023-10-09T03:32:43;44.38;;;25.00;;
15913;SDS011;8055;51.930;8.840;2023-10-09T03:35:09;47.38;;;25.13;;
15913;SDS011;8055;51.930;8.840;2023-10-09T03:37:38;45.40;;;24.58;;
15913;SDS011;8055;51.930;8.840;2023-10-09T03:40:04;42.83;;;23.92;;
15913;SDS011;8055;51.930;8.840;2023-10-09T03:42:32;46.35;;;24.08;;
15913;SDS011;8055;51.930;8.840;2023-10-09T03:45:01;40.05;;;23.58;;
15913;SDS011;8055;51.930;8.840;2023-10-09T03:47:31;42.60;;;23.80;;
15913;SDS011;8055;51.930;8.840;2023-10-09T03:49:56;39.42;;;23.83;;
15913;SDS011;8055;51.930;8.840;2023-10-09T03:52:27;39.95;;;22.02;;
15913;SDS011;8055;51.930;8.840;2023-10-09T03:54:53;40.17;;;22.13;;
15913;SDS011;8055;51.930;8.840;2023-10-09T03:57:19;39.13;;;22.58;;
15913;SDS011;8055;51.930;8.840;2023-10-09T03:59:45;37.88;;;22.45;;
15913;SDS011;8055;51.930;8.840;2023-10-09T04:02:17;37.28;;;22.92;;
15913;SDS011;8055;51.930;8.840;2023-10-09T04:04:43;39.42;;;22.65;;
15913;SDS011;8055;51.930;8.840;2023-10-09T04:07:13;34.78;;;21.25;;
15913;SDS011;8055;51.930;8.840;2023-10-09T04:09:41;37.95;;;21.27;;
15913;SDS011;8055;51.930;8.840;2023-10-09T04:12:09;31.38;;;19.60;;
15913;SDS011;8055;51.930;8.840;2023-10-09T04:14:41;36.28;;;20.27;;
15913;SDS011;8055;51.930;8.840;2023-10-09T04:17:20;40.30;;;21.27;;
15913;SDS011;8055;51.930;8.840;2023-10-09T04:19:48;38.55;;;21.50;;
15913;SDS011;8055;51.930;8.840;2023-10-09T04:22:37;38.78;;;21.67;;
15913;SDS011;8055;51.930;8.840;2023-10-09T04:25:05;42.13;;;22.27;;
15913;SDS011;8055;51.930;8.840;2023-10-09T04:27:40;39.55;;;21.48;;
15913;SDS011;8055;51.930;8.840;2023-10-09T04:30:06;42.08;;;22.30;;
15913;SDS011;8055;51.930;8.840;2023-10-09T04:32:32;38.72;;;21.50;;
15913;SDS011;8055;51.930;8.840;2023-10-09T04:34:59;40.38;;;21.58;;
15913;SDS011;8055;51.930;8.840;2023-10-09T04:37:44;37.35;;;22.00;;
15913;SDS011;8055;51.930;8.840;2023-10-09T04:40:17;44.97;;;23.42;;
15913;SDS011;8055;51.930;8.840;2023-10-09T04:43:01;40.65;;;23.08;;
15913;SDS011;8055;51.930;8.840;2023-10-09T04:45:31;43.80;;;23.77;;
15913;SDS011;8055;51.930;8.840;2023-10-09T04:48:09;44.95;;;24.98;;
15913;SDS011;8055;51.930;8.840;2023-10-09T04:50:35;43.33;;;24.27;;
15913;SDS011;8055;51.930;8.840;2023-10-09T04:53:10;47.50;;;24.95;;
15913;SDS011;8055;51.930;8.840;2023-10-09T04:55:39;43.22;;;25.70;;
15913;SDS011;8055;51.930;8.840;2023-10-09T04:58:09;42.05;;;23.75;;
15913;SDS011;8055;51.930;8.840;2023-10-09T05:00:39;44.58;;;24.92;;
15913;SDS011;8055;51.930;8.840;2023-10-09T05:03:07;49.45;;;26.75;;
15913;SDS011;8055;51.930;8.840;2023-10-09T05:05:52;41.92;;;25.00;;
15913;SDS011;8055;51.930;8.840;2023-10-09T05:08:24;49.92;;;26.75;;
15913;SDS011;8055;51.930;8.840;2023-10-09T05:13:22;48.28;;;27.58;;
15913;SDS011;8055;51.930;8.840;2023-10-09T05:16:10;46.83;;;27.63;;
15913;SDS011;8055;51.930;8.840;2023-10-09T05:18:51;44.58;;;26.27;;
15913;SDS011;8055;51.930;8.840;2023-10-09T05:21:24;49.47;;;27.80;;
15913;SDS011;8055;51.930;8.840;2023-10-09T05:23:56;47.80;;;27.17;;
15913;SDS011;8055;51.930;8.840;2023-10-09T05:26:37;46.88;;;26.63;;
15913;SDS011;8055;51.930;8.840;2023-10-09T05:29:12;47.42;;;26.75;;
15913;SDS011;8055;51.930;8.840;2023-10-09T05:31:48;42.72;;;26.10;;
15913;SDS011;8055;51.930;8.840;2023-10-09T05:34:32;46.50;;;27.20;;
15913;SDS011;8055;51.930;8.840;2023-10-09T05:37:02;52.60;;;27.65;;
15913;SDS011;8055;51.930;8.840;2023-10-09T05:39:49;48.65;;;26.35;;
15913;SDS011;8055;51.930;8.840;2023-10-09T05:42:32;47.22;;;28.52;;
15913;SDS011;8055;51.930;8.840;2023-10-09T05:47:42;40.85;;;26.25;;
15913;SDS011;8055;51.930;8.840;2023-10-09T05:50:26;41.95;;;25.10;;
15913;SDS011;8055;51.930;8.840;2023-10-09T05:52:53;44.53;;;25.90;;
15913;SDS011;8055;51.930;8.840;2023-10-09T05:55:21;48.80;;;25.90;;
15913;SDS011;8055;51.930;8.840;2023-10-09T05:57:53;45.20;;;26.33;;
15913;SDS011;8055;51.930;8.840;2023-10-09T06:00:39;41.20;;;25.60;;
15913;SDS011;8055;51.930;8.840;2023-10-09T06:03:22;48.38;;;26.70;;
15913;SDS011;8055;51.930;8.840;2023-10-09T06:05:54;40.88;;;25.35;;
15913;SDS011;8055;51.930;8.840;2023-10-09T06:08:24;43.72;;;27.70;;
15913;SDS011;8055;51.930;8.840;2023-10-09T06:11:13;42.20;;;25.65;;
15913;SDS011;8055;51.930;8.840;2023-10-09T06:13:57;47.22;;;26.75;;
15913;SDS011;8055;51.930;8.840;2023-10-09T06:16:37;44.92;;;27.80;;
15913;SDS011;8055;51.930;8.840;2023-10-09T06:19:13;42.50;;;24.63;;
15913;SDS011;8055;51.930;8.840;2023-10-09T06:21:45;41.33;;;24.95;;
15913;SDS011;8055;51.930;8.840;2023-10-09T06:24:17;38.83;;;23.90;;
15913;SDS011;8055;51.930;8.840;2023-10-09T06:26:44;40.42;;;23.92;;
15913;SDS011;8055;51.930;8.840;2023-10-09T06:29:20;43.67;;;24.02;;
15913;SDS011;8055;51.930;8.840;2023-10-09T06:32:06;38.28;;;23.25;;
15913;SDS011;8055;51.930;8.840;2023-10-09T06:34:45;46.25;;;25.63;;
15913;SDS011;8055;51.930;8.840;2023-10-09T06:37:11;39.83;;;24.33;;
15913;SDS011;8055;51.930;8.840;2023-10-09T06:42:24;41.75;;;23.60;;
15913;SDS011;8055;51.930;8.840;2023-10-09T06:45:09;49.28;;;24.77;;
15913;SDS011;8055;51.930;8.840;2023-10-09T06:47:46;50.30;;;25.30;;
15913;SDS011;8055;51.930;8.840;2023-10-09T06:50:21;42.10;;;24.15;;
15913;SDS011;8055;51.930;8.840;2023-10-09T06:52:47;38.97;;;25.33;;
15913;SDS011;8055;51.930;8.840;2023-10-09T06:55:25;45.70;;;25.58;;
15913;SDS011;8055;51.930;8.840;2023-10-09T06:58:02;47.28;;;24.73;;
15913;SDS011;8055;51.930;8.840;2023-10-09T07:00:37;42.22;;;24.77;;
15913;SDS011;8055;51.930;8.840;2023-10-09T07:03:22;39.85;;;24.75;;
15913;SDS011;8055;51.930;8.840;2023-10-09T07:06:04;41.65;;;25.13;;
15913;SDS011;8055;51.930;8.840;2023-10-09T07:08:56;40.33;;;24.13;;
15913;SDS011;8055;51.930;8.840;2023-10-09T07:14:26;38.75;;;23.98;;
15913;SDS011;8055;51.930;8.840;2023-10-09T07:19:22;40.17;;;24.17;;
15913;SDS011;8055;51.930;8.840;2023-10-09T07:22:06;40.83;;;23.35;;
15913;SDS011;8055;51.930;8.840;2023-10-09T07:24:52;34.22;;;22.58;;
15913;SDS011;8055;51.930;8.840;2023-10-09T07:30:17;38.53;;;22.52;;
15913;SDS011;8055;51.930;8.840;2023-10-09T07:32:58;34.28;;;21.90;;
15913;SDS011;8055;51.930;8.840;2023-10-09T07:35:31;38.08;;;21.33;;
15913;SDS011;8055;51.930;8.840;2023-10-09T07:40:39;37.80;;;22.67;;
15913;SDS011;8055;51.930;8.840;2023-10-09T07:43:23;39.85;;;23.05;;
15913;SDS011;8055;51.930;8.840;2023-10-09T07:45:53;34.65;;;21.90;;
15913;SDS011;8055;51.930;8.840;2023-10-09T07:48:38;34.75;;;21.48;;
15913;SDS011;8055;51.930;8.840;2023-10-09T07:51:13;39.58;;;22.33;;
15913;SDS011;8055;51.930;8.840;2023-10-09T07:53:39;37.35;;;22.13;;
15913;SDS011;8055;51.930;8.840;2023-10-09T07:56:11;38.70;;;21.35;;
15913;SDS011;8055;51.930;8.840;2023-10-09T07:58:39;30.23;;;20.85;;
15913;SDS011;8055;51.930;8.840;2023-10-09T08:01:11;38.17;;;21.58;;
15913;SDS011;8055;51.930;8.840;2023-10-09T08:03:46;31.45;;;20.40;;
15913;SDS011;8055;51.930;8.840;2023-10-09T08:06:12;34.65;;;20.92;;
15913;SDS011;8055;51.930;8.840;2023-10-09T08:08:56;34.55;;;21.88;;
15913;SDS011;8055;51.930;8.840;2023-10-09T08:11:31;34.72;;;21.50;;
15913;SDS011;8055;51.930;8.840;2023-10-09T08:14:06;35.20;;;21.42;;
15913;SDS011;8055;51.930;8.840;2023-10-09T08:16:45;37.33;;;20.58;;
15913;SDS011;8055;51.930;8.840;2023-10-09T08:19:11;34.45;;;20.88;;
15913;SDS011;8055;51.930;8.840;2023-10-09T08:21:57;36.05;;;21.05;;
15913;SDS011;8055;51.930;8.840;2023-10-09T08:24:44;32.92;;;20.40;;
15913;SDS011;8055;51.930;8.840;2023-10-09T08:27:18;33.67;;;21.23;;
15913;SDS011;8055;51.930;8.840;2023-10-09T08:32:43;33.28;;;20.48;;
15913;SDS011;8055;51.930;8.840;2023-10-09T08:35:26;37.15;;;20.45;;
15913;SDS011;8055;51.930;8.840;2023-10-09T08:38:14;36.25;;;20.45;;
15913;SDS011;8055;51.930;8.840;2023-10-09T08:40:42;33.28;;;19.52;;
15913;SDS011;8055;51.930;8.840;2023-10-09T08:45:40;34.47;;;21.73;;
15913;SDS011;8055;51.930;8.840;2023-10-09T08:48:10;33.20;;;20.55;;
15913;SDS011;8055;51.930;8.840;2023-10-09T08:50:47;30.13;;;19.73;;
15913;SDS011;8055;51.930;8.840;2023-10-09T08:53:15;30.67;;;19.40;;
15913;SDS011;8055;51.930;8.840;2023-10-09T08:55:41;35.08;;;20.55;;
15913;SDS011;8055;51.930;8.840;2023-10-09T08:58:08;33.08;;;20.40;;
15913;SDS011;8055;51.930;8.840;2023-10-09T09:00:46;31.70;;;20.30;;
15913;SDS011;8055;51.930;8.840;2023-10-09T09:03:15;33.90;;;21.33;;
15913;SDS011;8055;51.930;8.840;2023-10-09T09:05:45;32.35;;;20.00;;
15913;SDS011;8055;51.930;8.840;2023-10-09T09:08:25;32.55;;;19.52;;
15913;SDS011;8055;51.930;8.840;2023-10-09T09:10:57;34.22;;;21.75;;
15913;SDS011;8055;51.930;8.840;2023-10-09T09:14:12;38.05;;;22.25;;
15913;SDS011;8055;51.930;8.840;2023-10-09T09:16:33;33.13;;;20.40;;
15913;SDS011;8055;51.930;8.840;2023-10-09T09:21:38;30.17;;;20.58;;
15913;SDS011;8055;51.930;8.840;2023-10-09T09:24:06;34.67;;;21.40;;
15913;SDS011;8055;51.930;8.840;2023-10-09T09:26:48;31.63;;;20.92;;
15913;SDS011;8055;51.930;8.840;2023-10-09T09:29:43;32.58;;;21.13;;
15913;SDS011;8055;51.930;8.840;2023-10-09T09:32:19;34.72;;;20.75;;
15913;SDS011;8055;51.930;8.840;2023-10-09T09:34:55;35.95;;;21.15;;
15913;SDS011;8055;51.930;8.840;2023-10-09T09:37:26;34.47;;;21.80;;
15913;SDS011;8055;51.930;8.840;2023-10-09T09:40:00;31.95;;;20.65;;
15913;SDS011;8055;51.930;8.840;2023-10-09T09:42:27;31.85;;;19.92;;
15913;SDS011;8055;51.930;8.840;2023-10-09T09:44:53;32.65;;;21.10;;
15913;SDS011;8055;51.930;8.840;2023-10-09T09:47:20;33.22;;;20.17;;
15913;SDS011;8055;51.930;8.840;2023-10-09T09:49:52;34.53;;;20.90;;
15913;SDS011;8055;51.930;8.840;2023-10-09T09:52:30;30.25;;;21.15;;
15913;SDS011;8055;51.930;8.840;2023-10-09T09:55:18;33.20;;;21.05;;
15913;SDS011;8055;51.930;8.840;2023-10-09T09:57:48;33.13;;;21.10;;
15913;SDS011;8055;51.930;8.840;2023-10-09T10:00:18;33.65;;;21.40;;
15913;SDS011;8055;51.930;8.840;2023-10-09T10:02:54;35.65;;;21.40;;
15913;SDS011;8055;51.930;8.840;2023-10-09T10:05:25;33.60;;;21.88;;
15913;SDS011;8055;51.930;8.840;2023-10-09T10:07:57;30.23;;;20.42;;
15913;SDS011;8055;51.930;8.840;2023-10-09T10:10:37;29.00;;;19.05;;
15913;SDS011;8055;51.930;8.840;2023-10-09T10:13:12;34.17;;;22.27;;
15913;SDS011;8055;51.930;8.840;2023-10-09T10:18:33;31.60;;;19.55;;
15913;SDS011;8055;51.930;8.840;2023-10-09T10:21:46;31.77;;;19.55;;
15913;SDS011;8055;51.930;8.840;2023-10-09T10:27:15;31.52;;;19.85;;
15913;SDS011;8055;51.930;8.840;2023-10-09T10:29:43;30.95;;;20.95;;
15913;SDS011;8055;51.930;8.840;2023-10-09T10:32:11;33.90;;;21.67;;
15913;SDS011;8055;51.930;8.840;2023-10-09T10:37:21;31.52;;;21.35;;
15913;SDS011;8055;51.930;8.840;2023-10-09T10:40:23;35.45;;;21.35;;
15913;SDS011;8055;51.930;8.840;2023-10-09T10:43:03;37.70;;;21.92;;
15913;SDS011;8055;51.930;8.840;2023-10-09T10:45:38;35.40;;;21.15;;
15913;SDS011;8055;51.930;8.840;2023-10-09T10:48:09;28.77;;;19.98;;
15913;SDS011;8055;51.930;8.840;2023-10-09T10:50:56;31.42;;;20.48;;
15913;SDS011;8055;51.930;8.840;2023-10-09T10:53:23;29.45;;;19.98;;
15913;SDS011;8055;51.930;8.840;2023-10-09T10:55:59;37.60;;;21.73;;
15913;SDS011;8055;51.930;8.840;2023-10-09T10:58:53;33.92;;;21.67;;
15913;SDS011;8055;51.930;8.840;2023-10-09T11:01:29;32.00;;;21.70;;
15913;SDS011;8055;51.930;8.840;2023-10-09T11:04:15;34.70;;;22.05;;
15913;SDS011;8055;51.930;8.840;2023-10-09T11:06:50;39.40;;;22.35;;
15913;SDS011;8055;51.930;8.840;2023-10-09T11:09:16;30.98;;;20.60;;
15913;SDS011;8055;51.930;8.840;2023-10-09T11:11:49;34.30;;;22.10;;
15913;SDS011;8055;51.930;8.840;2023-10-09T11:14:15;36.88;;;22.00;;
15913;SDS011;8055;51.930;8.840;2023-10-09T11:16:42;32.95;;;22.20;;
15913;SDS011;8055;51.930;8.840;2023-10-09T11:19:12;36.30;;;24.02;;
15913;SDS011;8055;51.930;8.840;2023-10-09T11:24:43;38.35;;;24.95;;
15913;SDS011;8055;51.930;8.840;2023-10-09T11:27:26;42.65;;;25.45;;
15913;SDS011;8055;51.930;8.840;2023-10-09T11:29:57;40.90;;;25.48;;
15913;SDS011;8055;51.930;8.840;2023-10-09T11:32:30;40.88;;;26.05;;
15913;SDS011;8055;51.930;8.840;2023-10-09T11:35:10;42.50;;;28.70;;
15913;SDS011;8055;51.930;8.840;2023-10-09T11:37:44;37.63;;;28.25;;
15913;SDS011;8055;51.930;8.840;2023-10-09T11:40:29;38.63;;;27.92;;
15913;SDS011;8055;51.930;8.840;2023-10-09T11:43:16;46.00;;;30.73;;
15913;SDS011;8055;51.930;8.840;2023-10-09T11:45:42;45.10;;;31.33;;
15913;SDS011;8055;51.930;8.840;2023-10-09T11:48:19;39.55;;;29.90;;
15913;SDS011;8055;51.930;8.840;2023-10-09T11:51:12;44.03;;;32.50;;
15913;SDS011;8055;51.930;8.840;2023-10-09T11:53:44;47.05;;;33.60;;
15913;SDS011;8055;51.930;8.840;2023-10-09T11:56:14;49.92;;;35.50;;
15913;SDS011;8055;51.930;8.840;2023-10-09T11:58:42;49.90;;;35.15;;
15913;SDS011;8055;51.930;8.840;2023-10-09T12:01:12;51.45;;;37.47;;
15913;SDS011;8055;51.930;8.840;2023-10-09T12:03:48;56.30;;;38.17;;
15913;SDS011;8055;51.930;8.840;2023-10-09T12:06:19;53.13;;;38.22;;
15913;SDS011;8055;51.930;8.840;2023-10-09T12:08:47;54.38;;;39.35;;
15913;SDS011;8055;51.930;8.840;2023-10-09T12:11:14;58.55;;;41.15;;
15913;SDS011;8055;51.930;8.840;2023-10-09T12:13:41;54.70;;;40.15;;
15913;SDS011;8055;51.930;8.840;2023-10-09T12:16:10;61.53;;;42.00;;
15913;SDS011;8055;51.930;8.840;2023-10-09T12:18:36;61.95;;;40.17;;
15913;SDS011;8055;51.930;8.840;2023-10-09T12:21:04;57.20;;;42.22;;
15913;SDS011;8055;51.930;8.840;2023-10-09T12:23:30;56.78;;;42.63;;
15913;SDS011;8055;51.930;8.840;2023-10-09T12:26:01;58.92;;;41.90;;
15913;SDS011;8055;51.930;8.840;2023-10-09T12:28:27;54.28;;;41.35;;
15913;SDS011;8055;51.930;8.840;2023-10-09T12:30:53;58.97;;;41.35;;
15913;SDS011;8055;51.930;8.840;2023-10-09T12:33:19;59.05;;;43.33;;
15913;SDS011;8055;51.930;8.840;2023-10-09T12:35:52;58.20;;;42.50;;
15913;SDS011;8055;51.930;8.840;2023-10-09T12:38:25;57.33;;;41.47;;
15913;SDS011;8055;51.930;8.840;2023-10-09T12:41:02;62.63;;;43.92;;
15913;SDS011;8055;51.930;8.840;2023-10-09T12:43:44;63.03;;;44.58;;
15913;SDS011;8055;51.930;8.840;2023-10-09T12:46:10;58.80;;;44.65;;
15913;SDS011;8055;51.930;8.840;2023-10-09T12:48:35;60.75;;;43.58;;
15913;SDS011;8055;51.930;8.840;2023-10-09T12:51:08;58.63;;;44.63;;
15913;SDS011;8055;51.930;8.840;2023-10-09T12:53:36;60.22;;;42.47;;
15913;SDS011;8055;51.930;8.840;2023-10-09T12:56:06;61.92;;;44.28;;
15913;SDS011;8055;51.930;8.840;2023-10-09T12:58:32;60.60;;;42.25;;
15913;SDS011;8055;51.930;8.840;2023-10-09T13:01:02;58.03;;;41.95;;
15913;SDS011;8055;51.930;8.840;2023-10-09T13:03:35;60.35;;;43.42;;
15913;SDS011;8055;51.930;8.840;2023-10-09T13:06:03;57.33;;;42.28;;
15913;SDS011;8055;51.930;8.840;2023-10-09T13:11:05;52.95;;;39.97;;
15913;SDS011;8055;51.930;8.840;2023-10-09T13:13:42;52.10;;;39.83;;
15913;SDS011;8055;51.930;8.840;2023-10-09T13:16:26;52.03;;;39.03;;
15913;SDS011;8055;51.930;8.840;2023-10-09T13:18:53;55.63;;;39.38;;
15913;SDS011;8055;51.930;8.840;2023-10-09T13:21:20;53.28;;;37.90;;
15913;SDS011;8055;51.930;8.840;2023-10-09T13:23:57;52.38;;;39.42;;
15913;SDS011;8055;51.930;8.840;2023-10-09T13:26:22;51.88;;;36.92;;
15913;SDS011;8055;51.930;8.840;2023-10-09T13:29:01;48.40;;;35.60;;
15913;SDS011;8055;51.930;8.840;2023-10-09T13:31:28;53.50;;;38.10;;
15913;SDS011;8055;51.930;8.840;2023-10-09T13:33:57;48.42;;;37.90;;
15913;SDS011;8055;51.930;8.840;2023-10-09T13:36:24;53.92;;;35.88;;
15913;SDS011;8055;51.930;8.840;2023-10-09T13:39:03;52.83;;;36.80;;
15913;SDS011;8055;51.930;8.840;2023-10-09T13:41:45;51.88;;;35.15;;
15913;SDS011;8055;51.930;8.840;2023-10-09T13:44:12;53.33;;;36.25;;
15913;SDS011;8055;51.930;8.840;2023-10-09T13:46:37;47.17;;;34.10;;
15913;SDS011;8055;51.930;8.840;2023-10-09T13:49:09;52.80;;;37.83;;
15913;SDS011;8055;51.930;8.840;2023-10-09T13:51:39;65.95;;;40.58;;
15913;SDS011;8055;51.930;8.840;2023-10-09T13:54:12;58.05;;;40.45;;
15913;SDS011;8055;51.930;8.840;2023-10-09T13:56:45;53.33;;;36.42;;
15913;SDS011;8055;51.930;8.840;2023-10-09T13:59:11;50.72;;;35.83;;
15913;SDS011;8055;51.930;8.840;2023-10-09T14:01:37;50.92;;;34.40;;
15913;SDS011;8055;51.930;8.840;2023-10-09T14:04:04;53.28;;;34.78;;
15913;SDS011;8055;51.930;8.840;2023-10-09T14:06:31;52.90;;;33.70;;
15913;SDS011;8055;51.930;8.840;2023-10-09T14:09:00;52.97;;;35.03;;
15913;SDS011;8055;51.930;8.840;2023-10-09T14:11:33;52.45;;;36.38;;
15913;SDS011;8055;51.930;8.840;2023-10-09T14:14:09;48.10;;;32.72;;
15913;SDS011;8055;51.930;8.840;2023-10-09T14:16:35;50.08;;;31.88;;
15913;SDS011;8055;51.930;8.840;2023-10-09T14:19:02;54.75;;;34.90;;
15913;SDS011;8055;51.930;8.840;2023-10-09T14:21:32;52.55;;;35.88;;
15913;SDS011;8055;51.930;8.840;2023-10-09T14:24:02;48.03;;;33.22;;
15913;SDS011;8055;51.930;8.840;2023-10-09T14:26:28;55.60;;;35.90;;
15913;SDS011;8055;51.930;8.840;2023-10-09T14:28:54;52.17;;;35.90;;
15913;SDS011;8055;51.930;8.840;2023-10-09T14:31:22;52.88;;;33.42;;
15913;SDS011;8055;51.930;8.840;2023-10-09T14:34:01;54.75;;;34.28;;
15913;SDS011;8055;51.930;8.840;2023-10-09T14:36:27;49.20;;;32.95;;
15913;SDS011;8055;51.930;8.840;2023-10-09T14:38:59;46.63;;;33.13;;
15913;SDS011;8055;51.930;8.840;2023-10-09T14:41:26;45.35;;;30.60;;
15913;SDS011;8055;51.930;8.840;2023-10-09T14:43:53;47.63;;;33.58;;
15913;SDS011;8055;51.930;8.840;2023-10-09T14:46:19;48.97;;;31.95;;
15913;SDS011;8055;51.930;8.840;2023-10-09T14:48:51;52.38;;;34.75;;
15913;SDS011;8055;51.930;8.840;2023-10-09T14:51:20;47.97;;;32.90;;
15913;SDS011;8055;51.930;8.840;2023-10-09T14:53:53;45.25;;;30.52;;
15913;SDS011;8055;51.930;8.840;2023-10-09T14:56:22;42.53;;;30.23;;
15913;SDS011;8055;51.930;8.840;2023-10-09T14:58:57;48.63;;;29.48;;
15913;SDS011;8055;51.930;8.840;2023-10-09T15:01:24;43.70;;;28.40;;
15913;SDS011;8055;51.930;8.840;2023-10-09T15:03:59;50.03;;;30.33;;
15913;SDS011;8055;51.930;8.840;2023-10-09T15:06:27;45.30;;;29.67;;
15913;SDS011;8055;51.930;8.840;2023-10-09T15:08:54;44.17;;;29.75;;
15913;SDS011;8055;51.930;8.840;2023-10-09T15:11:33;46.08;;;30.63;;
15913;SDS011;8055;51.930;8.840;2023-10-09T15:13:59;52.92;;;29.35;;
15913;SDS011;8055;51.930;8.840;2023-10-09T15:16:25;37.17;;;25.08;;
15913;SDS011;8055;51.930;8.840;2023-10-09T15:18:54;46.83;;;29.73;;
15913;SDS011;8055;51.930;8.840;2023-10-09T15:21:22;37.00;;;26.38;;
15913;SDS011;8055;51.930;8.840;2023-10-09T15:23:51;40.45;;;26.27;;
15913;SDS011;8055;51.930;8.840;2023-10-09T15:26:20;40.67;;;25.83;;
15913;SDS011;8055;51.930;8.840;2023-10-09T15:28:46;41.33;;;25.45;;
15913;SDS011;8055;51.930;8.840;2023-10-09T15:31:14;42.72;;;26.63;;
15913;SDS011;8055;51.930;8.840;2023-10-09T15:33:41;40.85;;;25.42;;
15913;SDS011;8055;51.930;8.840;2023-10-09T15:36:15;43.00;;;25.85;;
15913;SDS011;8055;51.930;8.840;2023-10-09T15:38:46;41.17;;;25.00;;
15913;SDS011;8055;51.930;8.840;2023-10-09T15:41:13;41.45;;;24.98;;
15913;SDS011;8055;51.930;8.840;2023-10-09T15:43:40;38.67;;;24.33;;
15913;SDS011;8055;51.930;8.840;2023-10-09T15:46:15;37.08;;;24.08;;